x

9449424 - Cherry Point, Wa (chyw1) Weather Station

8:54pm - Mon 23rd Oct 2017 All times are PDT. -7 hours from GMT.

  • Wind
    9mph, 11mph gusts
  • Sea Temp 50°f
  • Air Temp 56°f
  • Sea Pressure 1036.8mb
  • 9449424 - Cherry Point, Wa
  • 9449424 - Cherry Point, Wa

More Historic Weather Station data

Upgrade to MSW Pro to gain access to the past 30 days of data for over 8000 Wavebouys and Weather Stations around the globe.

Join

Comparision Forecast

View Surf forecast
   
Mon 10/23 8:54pm 9 11 mph 1036.8mb 50f 56f
8:48pm 9 13 mph 1036.8mb 50f 56f
8:42pm 10 13 mph 1036.9mb 50f 56f
8:36pm 10 13 mph 1037mb 50f 56f
8:30pm 10 13 mph 1037mb 50f 56f
8:24pm 10 13 mph 1037mb 50f 56f
8:18pm  -  mph 1037.1mb 50f 56f
8:12pm  -  mph 1037.1mb 50f 56f
8:06pm  -  mph 1037.2mb 50f 56f
8:00pm 8 13 mph 1037.3mb 50f 56f
7:54pm 11 14 mph 1037.3mb 50f 56f
7:48pm  -  mph 1037.2mb 50f 56f
7:42pm  -  mph 1037.1mb 50f 56f
7:36pm  -  mph 1037.1mb 50f 56f
7:30pm 8 13 mph 1037.2mb 50f 56f
7:24pm 9 13 mph 1037.1mb 50f 56f
7:18pm 9 13 mph 1037.1mb 50f 56f
7:12pm 9 11 mph 1037.2mb 50f 56f
7:06pm 9 13 mph 1037.3mb 50f 56f
7:00pm 9 13 mph 1037.3mb 50f 57f
6:54pm 9 11 mph 1037.2mb 49f 57f
6:48pm  -  mph 1037.1mb 49f 57f
6:42pm  -  mph 1037.1mb 49f 57f
6:36pm  -  mph 1037mb 49f 57f
6:30pm 9 11 mph 1037.1mb 49f 57f
6:24pm 9 11 mph 1037.2mb 49f 57f
6:18pm 8 9 mph 1037.3mb 50f 57f
6:12pm 7 9 mph 1037.4mb 50f 57f
6:06pm 6 8 mph 1037.3mb 50f 57f
6:00pm 8 10 mph 1037.1mb 50f 58f
5:54pm 7 10 mph 1037.1mb 50f 58f
5:48pm 8 9 mph 1037.1mb 50f 58f
5:42pm 8 9 mph 1037.1mb 50f 58f
5:36pm 7 8 mph 1037.1mb 50f 58f
5:30pm 6 8 mph 1037.2mb 50f 58f
5:24pm 7 8 mph 1037.2mb 50f 58f
5:18pm 6 8 mph 1037.2mb 50f 58f
5:12pm 7 9 mph 1037.1mb 50f 58f
5:06pm 8 10 mph 1037.1mb 50f 58f
5:00pm 7 8 mph 1037mb 50f 58f
4:54pm 7 8 mph 1037mb 50f 58f
4:48pm  -  mph 1036.9mb 50f -
4:42pm  -  mph 1036.8mb 50f -
4:36pm  -  mph 1036.9mb 50f -
4:30pm 6 7 mph 1036.8mb 50f 58f
4:24pm 6 7 mph 1036.8mb 50f 58f
4:18pm 7 8 mph 1036.7mb 50f 58f
4:12pm 6 7 mph 1036.6mb 50f 58f
4:06pm 5 7 mph 1036.5mb 50f 57f
4:00pm 5 7 mph 1036.7mb 50f 58f
3:54pm 5 8 mph 1036.7mb 50f 58f
3:48pm 6 7 mph 1036.6mb 50f 58f
3:42pm 5 6 mph 1036.7mb 50f 58f
3:36pm 2 3 mph 1036.6mb 50f 57f
3:30pm 2 3 mph 1036.6mb 50f 56f
3:24pm  -  3 mph 1036.8mb 50f 55f
3:18pm 5 6 mph 1036.8mb 50f 58f
3:12pm 5 6 mph 1036.7mb 50f 58f
3:06pm 3 6 mph 1036.7mb 50f 57f
3:00pm 2 2 mph 1036.7mb 50f 56f
2:54pm  -  2 mph 1036.7mb 50f 56f
2:48pm  -  1 mph 1036.7mb 50f 55f
2:42pm  -  2 mph 1036.7mb 50f 55f
2:36pm  -  1 mph 1036.7mb 50f 55f
2:30pm  -  2 mph 1036.8mb 50f 55f
2:24pm  -  1 mph 1036.9mb 50f 55f
2:18pm 1 3 mph 1036.9mb 50f 55f
2:12pm 2 3 mph 1037mb 50f 55f
2:06pm 3 6 mph 1036.9mb 50f 57f
2:00pm 3 6 mph 1036.9mb 50f 57f
1:54pm 1 2 mph 1037.1mb 50f 57f
1:48pm 2 3 mph 1037.1mb 50f 57f
1:42pm 2 5 mph 1037.2mb 50f 57f
1:36pm 3 5 mph 1037.1mb 50f 57f
1:30pm 2 5 mph 1037.2mb 50f 56f
1:24pm 2 5 mph 1037.2mb 50f 56f
1:18pm 3 5 mph 1037.2mb 50f 56f
1:12pm 3 6 mph 1037.2mb 50f 56f
1:06pm 5 7 mph 1037.2mb 50f 56f
1:00pm 6 7 mph 1037.1mb 50f 56f
12:54pm 6 7 mph 1037.3mb 50f 55f
12:48pm 6 8 mph 1037.4mb 50f 56f
12:42pm 8 8 mph 1037.4mb 50f 55f
12:36pm 7 8 mph 1037.3mb 50f 55f
12:30pm 5 8 mph 1037.3mb 50f 55f
12:24pm 7 8 mph 1037.3mb 50f 55f
12:18pm 6 8 mph 1037.2mb 50f 55f
12:12pm 7 9 mph 1037.2mb 50f 55f
12:06pm 8 10 mph 1037.2mb 50f 54f
12:00pm 8 9 mph 1037.3mb 50f 54f
11:54am 6 9 mph 1037.3mb 50f 54f
11:48am 8 9 mph 1037.3mb 50f 53f
11:42am 7 9 mph 1037.3mb 50f 53f
11:36am 6 8 mph 1037.3mb 50f 53f
11:30am 7 8 mph 1037.3mb 50f 53f
11:24am 6 8 mph 1037.3mb 50f 53f
11:18am 8 9 mph 1037.3mb 50f 53f
11:12am 6 7 mph 1037.2mb 50f 53f
11:06am 7 9 mph 1037.3mb 50f 53f
11:00am 8 9 mph 1037.2mb 50f 53f
10:54am 8 9 mph 1037.1mb 50f 53f
10:48am 8 8 mph 1037mb 50f 53f
10:42am 8 9 mph 1037.1mb 50f 52f
10:36am 7 8 mph 1037mb 50f 52f
10:30am 8 9 mph 1037mb 50f 52f
10:24am 8 9 mph 1037.1mb 50f 52f
10:18am 7 8 mph 1037mb 50f 52f
10:12am 7 9 mph 1036.8mb 50f 52f
10:06am 8 9 mph 1036.8mb 50f 52f
10:00am 7 10 mph 1036.7mb 50f 52f
9:54am 8 9 mph 1036.6mb 50f 52f
9:48am 7 10 mph 1036.5mb 50f 51f
9:42am 8 10 mph 1036.4mb 50f 51f
9:36am 8 11 mph 1036.2mb 50f 51f
9:30am 9 10 mph 1036.2mb 50f 51f
9:24am 9 11 mph 1036.2mb 50f 51f
9:18am 10 13 mph 1036.1mb 50f 51f
9:12am 10 11 mph 1036.1mb 50f 51f
9:06am 9 13 mph 1036mb 50f 51f
9:00am 10 11 mph 1036mb 50f 51f
8:54am 9 11 mph 1036.1mb 50f 50f
8:48am 9 13 mph 1036mb 50f 50f
8:42am 9 11 mph 1035.9mb 50f 50f
8:36am 6 9 mph 1035.8mb 50f 50f
8:30am 3 6 mph 1035.8mb 50f 50f
8:24am 3 6 mph 1035.9mb 50f 50f
8:18am 6 8 mph 1035.6mb 50f 50f
8:12am 6 7 mph 1035.5mb 50f 50f
8:06am 6 8 mph 1035.4mb 50f 50f
8:00am 7 8 mph 1035.1mb 50f 50f
7:54am 7 9 mph 1035.3mb 50f 49f
7:48am 8 9 mph 1035.3mb 50f 50f
7:42am 6 7 mph 1035.2mb 50f 50f
7:36am 6 8 mph 1035.1mb 50f 50f
7:30am 7 9 mph 1035.1mb 50f 50f
7:24am 7 9 mph 1035.3mb 50f 50f
7:18am 8 9 mph 1035.1mb 50f 50f
7:12am 9 10 mph 1035mb 50f 50f
7:06am 9 10 mph 1035mb 50f 50f
7:00am 8 9 mph 1035mb 50f 50f
6:54am 7 8 mph 1035mb 50f 50f
6:48am 7 8 mph 1034.9mb 50f 50f
6:42am 6 8 mph 1034.9mb 50f 50f
6:36am 5 6 mph 1035mb 50f 50f
6:30am 3 5 mph 1034.9mb 50f 50f
6:24am 2 5 mph 1034.8mb 50f 50f
6:18am 3 5 mph 1034.7mb 50f 50f
6:12am 2 3 mph 1034.9mb 50f 50f
6:06am 2 5 mph 1034.7mb 50f 50f
6:00am 5 6 mph 1034.5mb 50f 50f
5:48am 3 6 mph 1034.4mb 50f 51f
5:42am  -  mph 1034.6mb - -
5:36am 3 7 mph 1034.4mb 50f 51f
5:30am 5 6 mph 1034.4mb 50f 51f
5:24am 6 7 mph 1034.3mb 50f 51f
5:18am 5 6 mph 1034.3mb 50f 52f
5:12am 3 6 mph 1034.2mb 50f 52f
5:06am 3 7 mph 1034.1mb 50f 51f
5:00am 3 6 mph 1033.9mb 50f 51f
4:54am 5 8 mph 1033.9mb 50f 51f
4:48am 3 5 mph 1033.9mb 50f 51f
4:42am 6 8 mph 1033.8mb 50f 51f
4:36am 6 9 mph 1033.7mb 50f 51f
4:30am 6 10 mph 1033.6mb 50f 51f
4:24am 8 9 mph 1033.6mb 50f 51f
4:18am 7 10 mph 1033.5mb 50f 51f
4:12am 7 10 mph 1033.5mb 50f 51f
4:06am 9 13 mph 1033.5mb 50f 51f
4:00am 8 11 mph 1033.6mb 50f 51f
3:54am 7 10 mph 1033.6mb 50f 51f
3:48am 7 11 mph 1033.5mb 50f 51f
3:42am 2 13 mph 1033.4mb 50f 50f
3:36am 9 15 mph 1033.3mb 50f 51f
3:30am 10 13 mph 1033.2mb 50f 51f
3:24am 7 15 mph 1033.2mb 50f 51f
3:18am 5 11 mph 1033.1mb 50f 51f
3:12am 7 10 mph 1033.1mb 50f 51f
3:06am 7 9 mph 1033.1mb 50f 51f
3:00am 6 9 mph 1033.1mb 50f 51f
2:54am 6 11 mph 1033mb 50f 51f
2:48am 7 11 mph 1033mb 50f 51f
2:42am 7 10 mph 1033mb 50f 51f
2:36am 8 10 mph 1033mb 50f 52f
2:30am 7 11 mph 1033mb 50f 51f
2:24am 8 13 mph 1032.9mb 50f 51f
2:18am 7 11 mph 1032.8mb 50f 52f
2:12am 7 10 mph 1032.7mb 50f 51f
2:06am 3 9 mph 1032.7mb 50f 51f
2:00am 5 8 mph 1032.6mb 50f 51f
1:54am 5 8 mph 1032.4mb 50f 51f
1:48am 5 7 mph 1032.3mb 50f 51f
1:42am 5 7 mph 1032.1mb 50f 51f
1:36am 5 11 mph 1032.1mb 50f 51f
1:30am 7 9 mph 1031.9mb 50f 51f
1:24am 6 8 mph 1031.9mb 50f 51f
1:18am 5 8 mph 1031.8mb 50f 51f
1:12am 5 7 mph 1031.8mb 50f 51f
1:06am 3 8 mph 1031.7mb 50f 51f
1:00am 7 11 mph 1031.6mb 50f 51f
12:54am 3 8 mph 1031.5mb 50f 51f
12:48am 3 9 mph 1031.4mb 50f 51f
12:42am 5 9 mph 1031.3mb 50f 51f
12:36am 3 11 mph 1031.3mb 50f 51f
12:30am 7 14 mph 1031.3mb 50f 51f
12:24am 8 14 mph 1031.1mb 50f 51f
12:18am 6 10 mph 1030.9mb 50f 51f
12:12am 7 11 mph 1030.8mb 50f 51f
12:06am 5 10 mph 1030.7mb 50f 52f
12:00am 3 10 mph 1030.7mb 50f 51f
Sun 10/22 11:54pm 5 9 mph 1030.6mb 50f 51f
11:48pm 3 6 mph 1030.7mb 50f 51f
11:42pm 6 7 mph 1030.6mb 50f 51f
11:36pm 5 6 mph 1030.6mb 50f 51f
11:30pm 3 7 mph 1030.5mb 50f 51f
11:24pm 2 7 mph 1030.4mb 50f 51f
11:18pm 6 9 mph 1030.5mb 50f 52f
11:12pm 7 9 mph 1030.4mb 50f 52f
11:06pm 6 8 mph 1030.4mb 50f 52f
11:00pm 6 8 mph 1030.3mb 50f 52f
10:54pm 5 8 mph 1030.2mb 50f 52f
10:48pm 5 6 mph 1030.2mb 50f 52f
10:42pm 3 10 mph 1030mb 50f 53f
10:36pm 5 9 mph 1029.9mb 50f 52f
10:30pm 7 11 mph 1029.9mb 50f 52f
10:24pm 10 13 mph 1029.8mb 50f 52f
10:18pm 11 13 mph 1029.6mb 50f 52f
10:12pm 11 13 mph 1029.5mb 50f 52f
10:06pm 13 14 mph 1029.4mb 50f 53f
10:00pm 9 11 mph 1029.3mb 50f 52f
9:54pm 9 10 mph 1029.2mb 50f 52f
9:48pm 8 10 mph 1029.2mb 50f 52f
9:42pm 10 14 mph 1029.1mb 50f 53f
9:36pm 14 15 mph 1028.9mb 50f 53f
9:30pm 14 15 mph 1028.8mb 50f 53f
9:24pm 9 10 mph 1028.7mb 50f 53f
9:18pm 9 10 mph 1028.8mb 50f 53f
9:12pm 10 11 mph 1028.9mb 50f 53f
9:06pm 7 9 mph 1028.7mb 50f 52f
9:00pm 7 9 mph 1028.8mb 50f 53f
8:54pm 7 9 mph 1028.7mb 50f 53f
8:48pm 9 11 mph 1028.6mb 50f 53f
8:42pm 10 11 mph 1028.5mb 50f 53f
8:36pm 10 14 mph 1028.4mb 50f 53f
8:30pm 11 13 mph 1028.3mb 50f 53f
8:24pm 9 10 mph 1028.2mb 50f 53f
8:18pm 8 9 mph 1028.2mb 50f 52f
8:12pm 9 11 mph 1028mb 50f 52f
8:06pm 8 9 mph 1027.8mb 50f 52f
8:00pm 7 8 mph 1027.6mb 50f 53f
7:54pm 8 9 mph 1027.5mb 50f 52f
7:48pm 9 10 mph 1027.3mb 50f 53f
7:42pm 10 14 mph 1027.1mb 50f 53f
7:36pm 13 15 mph 1026.9mb 50f 53f
7:30pm 14 17 mph 1026.8mb 50f 53f
7:24pm 16 20 mph 1026.7mb 50f 54f
7:18pm 16 18 mph 1026.7mb 50f 54f
7:12pm 14 18 mph 1026.6mb 50f 54f
7:06pm 17 20 mph 1026.5mb 50f 54f
7:00pm 17 18 mph 1026.3mb 50f 53f
6:54pm 15 17 mph 1026.3mb 50f 54f
6:48pm  -  mph 1026.3mb 50f 53f
6:42pm  -  mph 1026.2mb 50f 54f
6:36pm  -  mph 1026mb 50f 53f
6:30pm 15 17 mph 1025.9mb 50f 53f
6:24pm 17 21 mph 1025.7mb 50f 54f
6:18pm 18 21 mph 1025.5mb 50f 54f
6:12pm 18 21 mph 1025.3mb 50f 54f
6:06pm 18 22 mph 1025.2mb 50f 54f
6:00pm 22 24 mph 1025.2mb 50f 54f
5:54pm 21 25 mph 1025.2mb 50f 54f
5:48pm 20 24 mph 1025.1mb 50f 55f
5:42pm 18 22 mph 1025.1mb 50f 55f
5:36pm 21 22 mph 1024.9mb 50f 55f
5:30pm 15 17 mph 1024.7mb 50f 54f
5:24pm 14 16 mph 1024.5mb 50f 54f
5:18pm 13 14 mph 1024.7mb 50f 54f
5:12pm 10 13 mph 1024.4mb 50f 54f
5:06pm 11 13 mph 1024.1mb 50f 54f
5:00pm 10 13 mph 1024.5mb 50f 54f
4:54pm 10 14 mph 1024.5mb 50f 54f
4:48pm 11 14 mph 1024.2mb 50f -
4:42pm 11 16 mph 1024mb 50f -
4:36pm 13 15 mph 1023.8mb 50f -
4:30pm 14 18 mph 1023.7mb 50f 55f
4:24pm 17 20 mph 1023.6mb 50f 55f
4:18pm 15 18 mph 1023.8mb 50f 55f
4:12pm 16 17 mph 1023.9mb 50f 55f
4:06pm 15 17 mph 1023.7mb 50f 54f
4:00pm 16 18 mph 1023.4mb 50f 55f
3:54pm 15 17 mph 1023.1mb 50f 55f
3:48pm 15 18 mph 1023mb 50f -
3:42pm 16 18 mph 1022.8mb 50f -
3:36pm 14 16 mph 1022.8mb 50f -
3:30pm 13 15 mph 1022.7mb 50f 54f
3:24pm 15 21 mph 1022.6mb 50f 54f
3:18pm 18 21 mph 1022.6mb 50f 55f
3:12pm 14 16 mph 1022.5mb 50f 55f
3:06pm 10 14 mph 1022.4mb 50f 54f
3:00pm 6 10 mph 1022.3mb 50f 53f
2:54pm 8 10 mph 1022.2mb 50f 53f
2:48pm 9 11 mph 1022.2mb 50f 53f
2:42pm 10 13 mph 1022mb 50f 52f
2:36pm 13 14 mph 1021.8mb 50f 53f
2:30pm 13 17 mph 1021.7mb 50f 52f
2:24pm 17 26 mph 1021.7mb 50f 52f
2:18pm 25 29 mph 1021.8mb 50f 52f
2:12pm 17 24 mph 1021.8mb 50f 52f
2:06pm 23 26 mph 1021.7mb 50f 53f
2:00pm 16 23 mph 1021.5mb 50f 53f
1:54pm 15 21 mph 1021.5mb 50f 53f
1:48pm 8 15 mph 1021.3mb 50f 53f
1:42pm 13 17 mph 1021.1mb 50f 53f
1:36pm 14 15 mph 1021mb 50f 53f
1:30pm 13 15 mph 1020.9mb 50f 53f
1:24pm 11 14 mph 1020.8mb 50f 54f
1:18pm 13 16 mph 1020.7mb 50f 54f
1:12pm 10 17 mph 1020.6mb 50f 55f
1:06pm 14 21 mph 1020.6mb 50f 54f
1:00pm 16 22 mph 1020.5mb 50f 54f
12:54pm 18 21 mph 1020.4mb 50f 54f
12:48pm 17 22 mph 1020.4mb 50f 54f
12:42pm 16 21 mph 1020.3mb 50f 54f
12:36pm 17 20 mph 1020.2mb 50f 54f
12:30pm 16 18 mph 1020.2mb 50f 53f
12:24pm 14 16 mph 1020mb 50f 53f
12:18pm 13 15 mph 1020mb 50f 54f
12:12pm 14 16 mph 1020mb 50f 53f
12:06pm 14 15 mph 1019.8mb 50f 53f
12:00pm 16 20 mph 1019.5mb 50f 53f
11:54am 16 18 mph 1019.2mb 50f 53f
11:48am 14 16 mph 1019.1mb 50f 53f
11:42am 16 20 mph 1018.9mb 50f 53f
11:36am 16 20 mph 1018.6mb 50f 53f
11:30am 18 22 mph 1018.5mb 50f 53f
11:24am 16 20 mph 1018.4mb 50f 52f
11:18am 14 17 mph 1018.2mb 50f 53f
11:12am 16 18 mph 1018.1mb 50f 53f
11:06am 15 18 mph 1018mb 50f 53f
11:00am 17 18 mph 1017.8mb 50f 53f
10:54am 16 18 mph 1017.7mb 50f 53f
10:48am 17 20 mph 1017.5mb 50f 53f
10:42am 15 18 mph 1017.4mb 50f 52f
10:36am 15 17 mph 1017.2mb 50f 52f
10:30am 16 18 mph 1017mb 50f 53f
10:24am 18 22 mph 1016.9mb 50f 52f
10:18am 17 21 mph 1016.7mb 50f 52f
10:12am 17 21 mph 1016.6mb 50f 52f
10:06am 21 22 mph 1016.4mb 50f 52f
10:00am 21 22 mph 1016.1mb 50f 52f
9:54am 21 23 mph 1015.9mb 50f 52f
9:48am 20 22 mph 1015.7mb 50f 52f
9:42am 20 23 mph 1015.5mb 50f 52f
9:36am 15 18 mph 1015.3mb 50f 52f
9:30am 15 17 mph 1015.3mb 50f 52f
9:24am 14 15 mph 1015.2mb 50f 51f
9:18am 13 14 mph 1014.9mb 50f 51f
9:12am 11 14 mph 1014.9mb 50f 52f
9:06am 14 17 mph 1014.5mb 50f 52f
9:00am 16 20 mph 1014.3mb 50f 52f
8:54am 17 21 mph 1014mb 50f 52f
8:48am 14 16 mph 1014mb 50f 52f
8:42am 15 17 mph 1014.1mb 50f 52f
8:36am 14 17 mph 1014.1mb 50f 52f
8:30am 13 15 mph 1013.8mb 50f 52f
8:24am 15 17 mph 1013.6mb 50f 52f
8:18am 14 16 mph 1013.3mb 50f 52f
8:12am 16 20 mph 1013mb 50f 53f
8:06am 16 18 mph 1012.9mb 50f 53f
8:00am 16 17 mph 1012.8mb 50f 53f
7:54am 14 17 mph 1012.6mb 50f 52f
7:48am 15 17 mph 1012.5mb 50f 53f
7:42am 13 15 mph 1012.3mb 50f 52f
7:36am 11 14 mph 1012mb 50f 52f
7:30am 9 11 mph 1011.9mb 50f 52f
7:24am 7 14 mph 1011.6mb 50f 53f
7:18am 8 17 mph 1011.3mb 50f 54f
7:12am 10 15 mph 1011.1mb 50f 54f
7:06am 5 7 mph 1010.9mb 50f 54f
7:00am 6 9 mph 1010.8mb 50f 54f
6:54am 7 11 mph 1010.5mb 50f 54f
6:48am 5 8 mph 1010.3mb 50f 54f
6:42am 6 8 mph 1010.2mb 50f 53f
6:36am 5 7 mph 1010.2mb 50f 52f
6:30am 1 7 mph 1010.1mb 50f 53f
6:24am 3 5 mph 1009.9mb 50f 53f
6:18am 3 6 mph 1009.7mb 50f 53f
6:12am 6 11 mph 1009.4mb 50f 53f
6:06am 13 18 mph 1009.2mb 50f 53f
6:00am 16 22 mph 1008.8mb 50f 53f
5:54am 22 25 mph 1008.5mb 50f 54f
5:48am 23 25 mph 1008.2mb 50f 54f
5:42am 23 25 mph 1008mb 50f 53f
5:36am 24 28 mph 1007.9mb 50f 53f
5:30am 22 24 mph 1007.6mb 50f 53f
5:24am 17 20 mph 1007.6mb 50f 53f
5:18am 16 20 mph 1007.6mb 50f 53f
5:12am 16 20 mph 1007.4mb 50f 53f
5:06am 20 22 mph 1007.3mb 50f 53f
5:00am 20 22 mph 1007mb 50f 53f
4:54am 17 20 mph 1006.9mb 50f 53f
4:48am 17 21 mph 1006.8mb 50f 53f
4:42am 20 22 mph 1006.7mb 50f 53f
4:36am 17 21 mph 1006.5mb 50f 54f
4:30am 17 20 mph 1006.4mb 50f 53f
4:24am 17 20 mph 1006.2mb 50f 53f
4:18am 16 18 mph 1006mb 50f 53f
4:12am 16 17 mph 1005.9mb 50f 53f
4:06am 15 18 mph 1005.7mb 50f 53f
4:00am 16 22 mph 1005.4mb 50f 53f
3:54am 21 25 mph 1005.1mb 50f 54f
3:48am 23 26 mph 1004.9mb 50f 53f
3:42am 23 26 mph 1004.7mb 50f 53f
3:36am 24 26 mph 1004.7mb 50f 53f
3:30am 24 28 mph 1004.5mb 50f 54f
3:24am 21 26 mph 1004.4mb 50f 54f
3:18am 25 30 mph 1004.3mb 50f 54f
3:12am 26 32 mph 1004mb 50f 54f
3:06am 22 28 mph 1003.7mb 50f 53f
3:00am 24 29 mph 1004.1mb 50f 53f
2:54am 24 30 mph 1004.3mb 50f 53f
2:48am 24 28 mph 1003.9mb 50f 53f
2:42am 24 25 mph 1003.7mb 50f 54f
2:36am 23 25 mph 1003.4mb 50f 54f
2:30am 22 25 mph 1003mb 50f 54f
2:24am 21 26 mph 1002.9mb 50f 54f
2:18am 24 26 mph 1002.7mb 50f 54f
2:12am 23 25 mph 1002.5mb 50f 54f
2:06am 23 25 mph 1002.5mb 50f 55f
2:00am 24 26 mph 1002.3mb 50f 55f
1:54am 23 25 mph 1002.1mb 50f 55f
1:48am 20 23 mph 1002mb 50f 55f
1:42am 22 25 mph 1002mb 50f 55f
1:36am 23 28 mph 1001.9mb 50f 55f
1:30am 21 23 mph 1001.7mb 50f 54f
1:24am 17 21 mph 1001.7mb 50f 54f
1:18am 16 25 mph 1001.7mb 50f 54f
1:12am 21 25 mph 1001.8mb 50f 54f
1:06am 23 26 mph 1001.6mb 50f 54f
1:00am 22 24 mph 1001.5mb 50f 54f
12:54am 15 17 mph 1001.5mb 50f 54f
12:48am 14 16 mph 1001.3mb 50f 53f
12:42am 14 17 mph 1001.6mb 50f 54f
12:36am 14 20 mph 1001.5mb 50f 54f
12:30am 15 17 mph 1001.4mb 50f 54f
12:24am 16 18 mph 1001.3mb 50f 54f
12:18am 14 18 mph 1001.1mb 50f 55f
12:12am 16 17 mph 1000.9mb 50f 55f
12:06am 8 17 mph 1000.9mb 50f 54f
12:00am 10 17 mph 1000.9mb 50f 55f
Sat 10/21 11:54pm 17 24 mph 1000.6mb 50f 55f
11:48pm 20 23 mph 1000.3mb 50f -
11:42pm 18 22 mph 1000.4mb 50f -
11:36pm 22 26 mph 1000.4mb 50f -
11:30pm 22 25 mph 1000.2mb 50f 55f
11:24pm 21 29 mph 1000.2mb 50f 55f
11:18pm 21 28 mph 1000.2mb 50f 55f
11:12pm 21 25 mph 1000.3mb 50f 56f
11:06pm 6 17 mph 1000.4mb 50f 53f
11:00pm 7 17 mph 1000.5mb 50f 53f
10:54pm 15 21 mph 1000.4mb 50f 53f
10:48pm 6 15 mph 1000.2mb 50f 53f
10:42pm 6 13 mph 1000.4mb 50f 53f
10:36pm 7 14 mph 1000.5mb 50f 53f
10:30pm 5 15 mph 1000.3mb 50f 53f
10:24pm 10 18 mph 1000.2mb 50f 53f
10:18pm 11 16 mph 1000.1mb 50f 53f
10:12pm 13 20 mph 1000.3mb 50f 53f
10:06pm 8 17 mph 1000.4mb 50f 53f
10:00pm 14 18 mph 1000.3mb 50f 52f
9:54pm 10 16 mph 1000.2mb 50f 52f
9:48pm 11 17 mph 1000.2mb 50f 52f
9:42pm 8 17 mph 1000.3mb 50f 53f
9:36pm 11 17 mph 1000mb 50f 53f
9:30pm 10 16 mph 999.9mb 50f 52f
9:24pm 7 14 mph 1000mb 50f 52f
9:18pm 7 17 mph 1000mb 50f 52f
9:12pm 9 17 mph 999.8mb 50f 52f
9:06pm 7 18 mph 999.7mb 50f 52f
9:00pm 8 14 mph 999.6mb 50f 52f
8:54pm 8 16 mph 999.4mb 50f 52f
8:48pm 6 18 mph 999.2mb 50f 51f
8:42pm 8 16 mph 999.4mb 50f 51f
8:36pm 7 15 mph 999.4mb 50f 51f
8:30pm 8 17 mph 999.3mb 50f 51f
8:24pm 9 20 mph 999.1mb 50f 51f
8:18pm 15 22 mph 999.1mb 50f 51f
8:12pm 15 21 mph 999.1mb 50f 51f
8:06pm 15 22 mph 999.1mb 50f 51f
8:00pm 16 23 mph 999mb 50f 51f
7:54pm 17 23 mph 999mb 50f 51f
7:48pm 17 24 mph 999.1mb 50f 50f
7:42pm 17 24 mph 999.2mb 50f 50f
7:36pm 17 22 mph 999.3mb 50f 50f
7:30pm 16 25 mph 999.6mb 50f 50f
7:24pm 15 23 mph 999.5mb 50f 50f
7:18pm 14 21 mph 999.7mb 50f 50f
7:12pm 15 24 mph 999.7mb 50f 50f
7:06pm 16 22 mph 999.8mb 50f 50f
7:00pm 14 18 mph 999.9mb 50f 49f
6:54pm 15 18 mph 1000mb 50f 49f
6:48pm 11 25 mph 1000mb 50f 47f
6:30pm 14 21 mph 1000.3mb 50f 46f
6:24pm 18 20 mph 1000.2mb 50f 46f
6:18pm 15 21 mph 1000.1mb 50f 46f
6:12pm 17 24 mph 1000.2mb 50f 46f
6:06pm 20 25 mph 1000mb 50f 46f
6:00pm 18 23 mph 1000.2mb 50f 46f
5:54pm 16 20 mph 1000.3mb 50f 46f
5:48pm 13 16 mph 1000.1mb 50f 47f
5:42pm 14 16 mph 1000.3mb 50f 47f
5:36pm 14 17 mph 1000.5mb 50f 47f
5:30pm 14 16 mph 1000.8mb 50f 47f
5:24pm 10 13 mph 1000.9mb 50f 47f
5:18pm 8 13 mph 1001.1mb 50f 48f
5:12pm 10 14 mph 1001.2mb 50f 48f
5:06pm 11 14 mph 1001.3mb 50f 48f
5:00pm 11 16 mph 1001.2mb 50f 48f
4:54pm 13 17 mph 1001.1mb 50f 48f
4:48pm  -  mph 1001.2mb 50f 48f
4:42pm  -  mph 1001.1mb 50f 49f
4:36pm  -  mph 1001mb 50f 49f
4:30pm 18 23 mph 1001.6mb 50f 49f
4:24pm 18 26 mph 1002mb 50f 50f
4:18pm 15 23 mph 1002.1mb 50f 50f
4:12pm 18 22 mph 1002.3mb 50f 50f
4:06pm 15 22 mph 1002.5mb 50f 49f
4:00pm 15 21 mph 1002.8mb 50f 49f
3:54pm 14 20 mph 1003.1mb 50f 49f
3:48pm  -  mph 1003.2mb 50f 49f
3:42pm  -  mph 1003.3mb 50f 49f
3:36pm  -  mph 1003.5mb 50f 49f
3:30pm 13 21 mph 1003.7mb 50f 49f
3:24pm 15 23 mph 1003.7mb 50f 49f
3:18pm 16 23 mph 1003.8mb 50f 49f
3:12pm 14 21 mph 1003.8mb 50f 49f
3:06pm 14 21 mph 1004.1mb 50f 49f
3:00pm 14 21 mph 1004.1mb 50f 49f
2:54pm 15 22 mph 1004.3mb 50f 50f
2:48pm 15 22 mph 1004.5mb 50f 50f
2:42pm 13 17 mph 1004.7mb 50f 50f
2:36pm 13 17 mph 1004.6mb 50f 50f
2:30pm 14 18 mph 1004.5mb 50f 50f
2:24pm 11 15 mph 1004.5mb 50f 50f
2:18pm 13 20 mph 1004.6mb 50f 50f
2:12pm 13 16 mph 1004.4mb 50f 50f
2:06pm 14 20 mph 1004.5mb 50f 51f
2:00pm 15 20 mph 1004.6mb 50f 51f
1:54pm 15 22 mph 1004.6mb 50f 50f
1:48pm 15 23 mph 1004.6mb 50f 50f
1:42pm 16 21 mph 1004.8mb 50f 50f
1:36pm 14 20 mph 1005mb 50f 50f
1:30pm 11 17 mph 1005.1mb 50f 50f
1:24pm 14 22 mph 1005mb 50f 50f
1:18pm 9 14 mph 1005mb 50f 47f
1:12pm 14 17 mph 1005.2mb 50f 49f
1:06pm 11 21 mph 1005.2mb 50f 49f
1:00pm 11 18 mph 1005.1mb 50f 48f
12:54pm 10 15 mph 1005.2mb 50f 47f
12:48pm 11 16 mph 1005.4mb 50f 47f
12:42pm 13 17 mph 1005.5mb 50f 47f
12:36pm 14 17 mph 1005.5mb 50f 46f
12:30pm  -  mph 1005.7mb - -
12:24pm 9 13 mph 1005.9mb 50f 46f
12:18pm 10 13 mph 1005.9mb 50f 45f
12:12pm 9 16 mph 1005.9mb 50f 46f
12:06pm 14 16 mph 1005.9mb 50f 45f
12:00pm 11 14 mph 1005.8mb 50f 45f
11:54am 10 15 mph 1005.9mb 50f 45f
11:48am 15 18 mph 1005.9mb 50f 45f
11:42am 15 20 mph 1005.8mb 50f 45f
11:36am 14 17 mph 1005.6mb 50f 45f
11:30am 17 21 mph 1005.6mb 50f 45f
11:24am 16 21 mph 1005.6mb 50f 45f
11:18am 17 23 mph 1005.4mb 50f 45f
11:12am 17 25 mph 1005.7mb 50f 45f
11:06am 18 22 mph 1005.4mb 50f 45f
11:00am 16 21 mph 1005.7mb 50f 45f
10:54am 15 22 mph 1005.6mb 50f 45f
10:48am 18 25 mph 1005.6mb 50f 44f
10:42am 20 25 mph 1005.6mb 50f 44f
10:36am 21 25 mph 1005.7mb 50f 44f
10:30am 20 23 mph 1005.7mb 50f 44f
10:24am 16 24 mph 1005.9mb 50f 44f
10:18am 21 26 mph 1005.9mb 50f 44f
10:12am 18 26 mph 1006mb 50f 44f
10:06am 17 24 mph 1006mb 50f 44f
10:00am 18 24 mph 1006mb 50f 44f
9:54am 18 23 mph 1006.1mb 50f 44f
9:48am 18 22 mph 1006mb 50f 44f
9:42am 20 24 mph 1006mb 50f 44f
9:36am 18 23 mph 1006.1mb 50f 44f
9:30am 18 23 mph 1006.3mb 50f 44f
9:24am 17 23 mph 1006.5mb 50f 44f
9:18am 17 21 mph 1006.5mb 50f 44f
9:12am 17 22 mph 1006.7mb 50f 44f
9:06am 17 22 mph 1006.8mb 50f 44f
9:00am 17 22 mph 1006.9mb 50f 44f
8:54am 17 24 mph 1006.8mb 50f 44f
8:48am 17 21 mph 1007mb 50f 44f
8:42am 14 18 mph 1007mb 50f 44f
8:36am 14 18 mph 1007.1mb 50f 44f
8:30am 15 20 mph 1007.1mb 50f 44f
8:24am 14 20 mph 1007.1mb 50f 44f
8:18am 16 20 mph 1007.1mb 50f 44f
8:12am 14 18 mph 1007mb 50f 44f
8:06am 15 20 mph 1007mb 50f 44f
8:00am 14 17 mph 1007.1mb 50f 44f
7:54am 15 17 mph 1006.9mb 50f 44f
7:48am 13 21 mph 1006.8mb 50f 45f
7:42am 15 20 mph 1007mb 50f 46f
7:36am 15 21 mph 1007.1mb 50f 46f
7:30am 14 18 mph 1007.1mb 50f 46f
7:24am 14 17 mph 1007.2mb 50f 46f
7:18am 13 18 mph 1007.4mb 50f 46f
7:12am 13 18 mph 1007.4mb 50f 46f
7:06am 14 17 mph 1007.5mb 50f 46f
7:00am 14 16 mph 1007.6mb 50f 47f
6:54am 13 17 mph 1007.7mb 50f 46f
6:48am 11 15 mph 1007.9mb 50f 47f
6:42am 14 17 mph 1008mb 50f 47f
6:36am 14 21 mph 1008mb 50f 48f
6:30am 15 22 mph 1008.2mb 50f 48f
6:24am 17 23 mph 1008.3mb 50f 48f
6:18am 15 22 mph 1008.5mb 50f 48f
6:12am 15 22 mph 1008.7mb 50f 48f
6:06am 13 20 mph 1008.6mb 50f 48f
6:00am 17 22 mph 1008.8mb 50f 48f
5:54am 16 21 mph 1008.9mb 50f 48f
5:48am 16 21 mph 1008.9mb 50f 49f
5:42am 13 21 mph 1009mb 50f 49f
5:36am 15 20 mph 1009.2mb 50f 49f
5:30am 13 20 mph 1009.2mb 50f 49f
5:24am 11 18 mph 1009.1mb 50f 49f
5:18am 11 22 mph 1009.1mb 50f 49f
5:12am 16 22 mph 1009.1mb 50f 49f
5:06am 15 24 mph 1009.3mb 50f 50f
5:00am 15 20 mph 1009.3mb 50f 50f
4:54am 14 20 mph 1009.4mb 50f 50f
4:48am 16 21 mph 1009.3mb 50f 50f
4:42am 13 18 mph 1009.5mb 50f 50f
4:36am 10 18 mph 1009.6mb 50f 50f
4:30am 15 21 mph 1009.6mb 50f 50f
4:24am 10 22 mph 1009.7mb 50f 50f
4:18am 13 18 mph 1009.8mb 50f 50f
4:12am 14 21 mph 1009.9mb 50f 50f
4:06am 10 22 mph 1009.9mb 50f 49f
4:00am 14 22 mph 1010mb 50f 49f
3:54am 15 25 mph 1010mb 50f 49f
3:48am 14 22 mph 1010mb 50f 49f
3:42am 15 25 mph 1010.2mb 50f 49f
3:36am 13 20 mph 1010.4mb 50f 49f
3:30am 14 21 mph 1010.4mb 50f 49f
3:24am 14 22 mph 1010.6mb 50f 49f
3:18am 16 20 mph 1010.6mb 50f 49f
3:12am 15 20 mph 1010.8mb 50f 49f
3:06am 15 21 mph 1010.8mb 50f 49f
3:00am 16 23 mph 1010.8mb 50f 49f
2:54am 9 17 mph 1010.9mb 50f 49f
2:48am 10 20 mph 1010.9mb 50f 49f
2:42am 9 16 mph 1010.9mb 50f 49f
2:36am 11 17 mph 1011mb 50f 49f
2:30am 11 20 mph 1011mb 50f 49f
2:24am 9 15 mph 1011mb 50f 48f
2:18am 10 14 mph 1011.1mb 50f 48f
2:12am 10 14 mph 1011.1mb 50f 48f
2:06am 11 15 mph 1011.1mb 50f 48f
2:00am 10 15 mph 1011.1mb 50f 48f
1:54am 11 16 mph 1011.2mb 50f 48f
1:48am 11 16 mph 1011.3mb 50f 48f
1:42am 10 14 mph 1011.3mb 50f 48f
1:36am 7 10 mph 1011.3mb 50f 48f
1:30am 10 15 mph 1011.2mb 50f 47f
1:24am 10 14 mph 1011.3mb 50f 48f
1:18am 9 15 mph 1011.4mb 50f 48f
1:12am 10 15 mph 1011.5mb 50f 48f
1:06am 10 14 mph 1011.4mb 50f 48f
1:00am 10 16 mph 1011.4mb 50f 47f
12:54am 10 15 mph 1011.5mb 50f 47f
12:48am 11 14 mph 1011.5mb 50f 47f
12:42am 10 15 mph 1011.6mb 50f 47f
12:36am 11 16 mph 1011.6mb 50f 47f
12:30am 11 15 mph 1011.7mb 50f 47f
12:24am 10 16 mph 1011.8mb 50f 47f
12:18am 11 15 mph 1011.8mb 50f 47f
12:12am 11 15 mph 1011.8mb 50f 47f
12:06am 10 14 mph 1011.9mb 50f 47f
12:00am 10 17 mph 1011.8mb 50f 47f
Fri 10/20 11:54pm 16 20 mph 1011.7mb 50f 48f
11:48pm 9 14 mph 1011.8mb 50f 49f
11:42pm 7 11 mph 1011.8mb 50f 49f
11:36pm 5 10 mph 1011.8mb 50f 48f
11:30pm 6 14 mph 1011.7mb 50f 48f
11:24pm 10 16 mph 1011.8mb 50f 48f
11:18pm 9 14 mph 1011.7mb 50f 48f
11:12pm 9 14 mph 1011.7mb 50f 48f
11:06pm 9 13 mph 1011.7mb 50f 49f
11:00pm 7 13 mph 1011.8mb 50f 49f
10:54pm 8 16 mph 1011.7mb 50f 49f
10:48pm 13 22 mph 1011.7mb 50f 49f
10:42pm 13 14 mph 1011.6mb 50f 50f
10:36pm 6 13 mph 1011.7mb 50f 50f
10:30pm 2 6 mph 1011.6mb 50f 50f
10:24pm 2 11 mph 1011.5mb 50f 50f
10:18pm 11 13 mph 1011.4mb 50f 50f
10:12pm 13 17 mph 1011.4mb 50f 50f
10:06pm 15 17 mph 1011.4mb 50f 50f
10:00pm 15 17 mph 1011.3mb 50f 50f
9:54pm 15 17 mph 1011.2mb 50f 50f
9:48pm 15 17 mph 1011.1mb 50f 50f
9:42pm 15 18 mph 1011mb 50f 50f
9:36pm 15 18 mph 1011mb 50f 50f
9:30pm 17 20 mph 1011mb 50f 50f
9:24pm 17 18 mph 1010.9mb 50f 50f
9:18pm 14 16 mph 1010.9mb 50f 50f
9:12pm 15 17 mph 1010.9mb 50f 50f
9:06pm 16 17 mph 1010.9mb 50f 50f
9:00pm 13 15 mph 1010.8mb 50f 50f
8:54pm 15 17 mph 1010.8mb 50f 50f
8:48pm 16 18 mph 1010.8mb 50f 50f
8:42pm 16 18 mph 1010.7mb 50f 50f
8:36pm 17 18 mph 1010.7mb 50f 50f
8:30pm 16 18 mph 1010.6mb 50f 50f
8:24pm 16 18 mph 1010.6mb 50f 50f
8:18pm 14 16 mph 1010.5mb 50f 50f
8:12pm 15 18 mph 1010.4mb 50f 50f
8:06pm 18 21 mph 1010.3mb 50f 51f
8:00pm 18 21 mph 1010.3mb 50f 50f
7:54pm 17 20 mph 1010.2mb 50f 51f
7:48pm  -  mph 1010.1mb 50f 51f
7:42pm  -  mph 1010mb 50f 51f
7:36pm  -  mph 1009.8mb 50f 51f
7:30pm 16 18 mph 1009.7mb 50f 51f
7:24pm 18 22 mph 1009.6mb 50f 51f
7:18pm 20 22 mph 1009.5mb 50f 51f
7:12pm 18 22 mph 1009.3mb 50f 51f
7:06pm 18 21 mph 1009.2mb 50f 51f
7:00pm 17 20 mph 1009.1mb 50f 51f
6:54pm 16 20 mph 1009mb 50f 51f
6:48pm  -  mph 1008.9mb 50f 51f
6:42pm  -  mph 1008.8mb 50f 51f
6:36pm  -  mph 1008.6mb 50f 52f
6:30pm 17 21 mph 1008.5mb 50f 52f
6:24pm 16 21 mph 1008.4mb 50f 51f
6:18pm 14 16 mph 1008.3mb 50f 51f
6:12pm 15 17 mph 1008.2mb 50f 51f
6:06pm 15 16 mph 1008.1mb 50f 51f
6:00pm 15 16 mph 1008mb 50f 51f
5:54pm 15 17 mph 1007.9mb 50f 52f
5:48pm 15 17 mph 1007.8mb 50f 52f
5:42pm 14 15 mph 1007.8mb 50f 52f
5:36pm 14 16 mph 1007.7mb 50f 52f
5:30pm 13 15 mph 1007.6mb 50f 52f
5:24pm 13 15 mph 1007.6mb 50f 52f
5:18pm 13 15 mph 1007.5mb 50f 51f
5:12pm 13 16 mph 1007.4mb 50f 52f
5:06pm 11 15 mph 1007.3mb 50f 52f
5:00pm 11 15 mph 1007.2mb 50f 52f
4:54pm 14 16 mph 1007.1mb 50f 52f
4:48pm 14 17 mph 1007.1mb 50f 52f
4:42pm 13 16 mph 1007.1mb 50f 52f
4:36pm 14 16 mph 1007mb 50f 52f
4:30pm 10 14 mph 1006.9mb 50f 52f
4:24pm 13 18 mph 1006.9mb 50f 51f
4:18pm 15 18 mph 1006.8mb 50f 51f
4:12pm 15 20 mph 1006.7mb 50f 51f
4:06pm 16 18 mph 1006.6mb 50f 51f
4:00pm 14 17 mph 1006.6mb 50f 51f
3:54pm 15 18 mph 1006.5mb 50f 51f
3:48pm  -  mph 1006.4mb 50f -
3:42pm  -  mph 1006.3mb 50f -
3:36pm  -  mph 1006.3mb 50f -
3:30pm 16 18 mph 1006.2mb 50f 51f
3:24pm 16 18 mph 1006.2mb 50f 51f
3:18pm 16 20 mph 1006.1mb 50f 51f
3:12pm 16 20 mph 1006.1mb 50f 51f
3:06pm 15 17 mph 1006mb 50f 51f
3:00pm 16 21 mph 1005.9mb 50f 51f
2:54pm 15 18 mph 1005.8mb 50f 51f
2:48pm 7 14 mph 1005.8mb 50f 51f
2:42pm 6 13 mph 1005.7mb 50f 51f
2:36pm 5 15 mph 1005.6mb 50f 51f
2:30pm 7 15 mph 1005.6mb 50f 52f
2:24pm 6 11 mph 1005.5mb 50f 52f
2:18pm 3 11 mph 1005.4mb 50f 52f
2:12pm 2 11 mph 1005.4mb 50f 52f
2:06pm 5 10 mph 1005.4mb 50f 52f
2:00pm 6 21 mph 1005.4mb 50f 51f
1:54pm 6 10 mph 1005.4mb 50f 51f
1:48pm 6 10 mph 1005.3mb 50f 51f
1:42pm 6 10 mph 1005.3mb 50f 51f
1:36pm 8 15 mph 1005.3mb 50f 52f
1:30pm 5 10 mph 1005.2mb 50f 52f
1:24pm  -  mph 1005.1mb - -
1:18pm 6 11 mph 1005.1mb 50f 51f
1:12pm 7 13 mph 1004.9mb 50f 51f
1:06pm 6 13 mph 1004.9mb 50f 51f
1:00pm 6 13 mph 1004.8mb 50f 51f
12:54pm 7 13 mph 1004.7mb 50f 51f
12:48pm 6 11 mph 1004.7mb 50f 51f
12:42pm 6 13 mph 1004.7mb 50f 51f
12:36pm 6 14 mph 1004.6mb 50f 51f
12:30pm 5 17 mph 1004.6mb 50f 51f
12:24pm 5 17 mph 1004.5mb 50f 51f
12:18pm 8 18 mph 1004.6mb 50f 51f
12:12pm 6 15 mph 1004.5mb 50f 51f
12:06pm 5 13 mph 1004.5mb 50f 51f
12:00pm 5 10 mph 1004.3mb 50f 50f
11:54am 3 8 mph 1004.3mb 50f 50f
11:48am 5 9 mph 1004.3mb 50f 50f
11:42am 6 11 mph 1004.4mb 50f 50f
11:36am 6 17 mph 1004.4mb 50f 50f
11:30am 8 20 mph 1004.3mb 50f 50f
11:24am 13 25 mph 1004.2mb 50f 50f
11:18am 22 26 mph 1004.2mb 50f 50f
11:12am 22 25 mph 1004.1mb 50f 50f
11:06am 11 21 mph 1003.9mb 50f 50f
11:00am 6 14 mph 1003.7mb 50f 50f
10:54am 9 17 mph 1003.6mb 50f 50f
10:48am 8 17 mph 1003.5mb 50f 50f
10:42am 11 21 mph 1003.4mb 50f 50f
10:36am 13 20 mph 1003.4mb 50f 50f
10:30am 14 22 mph 1003.3mb 50f 50f
10:24am 14 22 mph 1003.1mb 50f 49f
10:18am 14 21 mph 1003.1mb 50f 49f
10:12am 15 21 mph 1003mb 50f 49f
10:06am 14 20 mph 1002.9mb 50f 49f
10:00am 14 25 mph 1002.9mb 50f 49f
9:54am 18 24 mph 1002.9mb 50f 49f
9:48am 21 24 mph 1002.9mb 50f 49f
9:00am 21 24 mph 1002.6mb 50f 48f
8:54am 20 22 mph 1002.6mb 50f 49f
8:48am 15 20 mph 1002.4mb 50f 49f
7:54am 18 22 mph 1001.9mb 50f 49f
7:48am 18 20 mph 1001.9mb 50f 49f
7:18am 16 21 mph 1001.7mb 50f 49f
7:12am 17 20 mph 1001.6mb 50f 49f
7:06am 20 22 mph 1001.6mb 50f 49f
7:00am 17 22 mph 1001.6mb 50f 49f
6:54am 16 18 mph 1001.5mb 50f 49f
6:48am 16 17 mph 1001.4mb 50f 49f
6:42am 7 14 mph 1001.3mb 50f 49f
6:36am 8 16 mph 1001.3mb 50f 49f
6:30am 10 14 mph 1001.2mb 50f 49f
6:24am 8 13 mph 1001.1mb 50f 49f
6:18am 8 14 mph 1001.1mb 50f 49f
6:12am 8 11 mph 1001.1mb 50f 49f
6:06am 8 11 mph 1001.1mb 50f 49f
6:00am 9 11 mph 1001mb 50f 48f
5:54am 8 10 mph 1000.9mb 50f 48f
5:48am 8 13 mph 1000.8mb 50f 49f
5:42am 11 13 mph 1000.8mb 50f 49f
5:36am 13 14 mph 1000.7mb 50f 49f
5:30am 10 13 mph 1000.7mb 50f 49f
5:24am 9 13 mph 1000.5mb 50f 49f
5:18am 9 13 mph 1000.4mb 50f 49f
5:12am 10 13 mph 1000.3mb 50f 49f
5:06am 10 11 mph 1000.2mb 50f 49f
5:00am 11 13 mph 1000.1mb 50f 49f
4:54am 10 11 mph 1000mb 50f 50f
4:48am 10 11 mph 1000mb 50f 50f
4:42am 9 10 mph 999.9mb 50f 50f